Time;durP1;ratioP1;P1;durP2;ratioP2;P2;SDS_P1;SDS_P2;PMS_P1;PMS_P2;Temp;Humidity;BMP_temperature;BMP_pressure;BME280_temperature;BME280_humidity;BME280_pressure;Samples;Min_cycle;Max_cycle;Signal;HPM_P1;HPM_P2
2023/06/10 00:01:48;;;;;;;;;;;;;;;;;;5064935;28;19995;-64
2023/06/10 00:04:14;;;;;;;;;;;;;;;;;;5056741;28;19965;-63
2023/06/10 00:06:40;;;;;;;;;;;;;;;;;;5051670;28;19917;-63
2023/06/10 00:09:10;;;;;;;;;;;;;;;;;;5064567;28;19970;-63
2023/06/10 00:11:36;;;;;;;;;;;;;;;;;;5059333;28;19913;-63
2023/06/10 00:14:01;;;;;;;;;;;;;;;;;;5057696;28;20287;-63
2023/06/10 00:16:27;;;;;;;;;;;;;;;;;;5068828;28;19935;-63
2023/06/10 00:18:55;;;;;;;;;;;;;;;;;;5070242;28;19912;-63
2023/06/10 00:21:21;;;;;;;;;;;;;;;;;;5069810;28;19965;-63
2023/06/10 00:23:47;;;;;;;;;;;;;;;;;;5061601;28;19908;-63
2023/06/10 00:26:13;;;;;;;;;;;;;;;;;;5062916;28;20292;-63
2023/06/10 00:28:39;;;;;;;;;;;;;;;;;;5072401;28;20022;-63
2023/06/10 00:31:05;;;;;;;;;;;;;;;;;;5064186;28;20070;-62
2023/06/10 00:33:31;;;;;;;;;;;;;;;;;;5055920;28;19916;-63
2023/06/10 00:35:57;;;;;;;;;;;;;;;;;;5056501;28;19920;-63
2023/06/10 00:38:23;;;;;;;;;;;;;;;;;;5049967;28;20415;-64
2023/06/10 00:40:49;;;;;;;;;;;;;;;;;;5055076;28;19958;-63
2023/06/10 00:43:15;;;;;;;;;;;;;;;;;;5070688;28;20366;-62
2023/06/10 00:45:41;;;;;;;;;;;;;;;;;;5072815;28;19956;-62
2023/06/10 00:48:07;;;;;;;;;;;;;;;;;;5075835;28;19999;-63
2023/06/10 00:50:34;;;;;;;;;;;;;;;;;;5075224;28;20355;-62
2023/06/10 00:53:00;;;;;;;;;;;;;;;;;;5071859;28;19921;-63
2023/06/10 00:55:27;;;;;;;;;;;;;;;;;;5073937;28;19923;-63
2023/06/10 00:57:53;;;;;;;;;;;;;;;;;;5075875;28;19948;-63
2023/06/10 01:00:18;;;;;;;;;;;;;;;;;;5074898;28;19959;-63
2023/06/10 01:02:44;;;;;;;;;;;;;;;;;;5075447;28;20368;-63
2023/06/10 01:05:10;;;;;;;;;;;;;;;;;;5075275;28;19924;-63
2023/06/10 01:07:37;;;;;;;;;;;;;;;;;;5072331;28;20375;-63
2023/06/10 01:10:03;;;;;;;;;;;;;;;;;;5056422;28;19923;-63
2023/06/10 01:12:29;;;;;;;;;;;;;;;;;;5057598;28;19921;-63
2023/06/10 01:14:55;;;;;;;;;;;;;;;;;;5075190;28;19924;-63
2023/06/10 01:17:21;;;;;;;;;;;;;;;;;;5060514;28;20384;-63
2023/06/10 01:19:47;;;;;;;;;;;;;;;;;;5054564;28;20043;-63
2023/06/10 01:22:15;;;;;;;;;;;;;;;;;;5069743;28;19913;-63
2023/06/10 01:24:43;;;;;;;;;;;;;;;;;;5067003;28;19912;-64
2023/06/10 01:27:09;;;;;;;;;;;;;;;;;;5059490;28;19913;-63
2023/06/10 01:29:37;;;;;;;;;;;;;;;;;;5056572;28;19917;-63
2023/06/10 01:32:03;;;;;;;;;;;;;;;;;;5062882;28;19912;-63
2023/06/10 01:34:29;;;;;;;;;;;;;;;;;;5071756;28;19963;-63
2023/06/10 01:36:55;;;;;;;;;;;;;;;;;;5074695;28;20003;-63
2023/06/10 01:39:21;;;;;;;;;;;;;;;;;;5074505;28;19913;-63
2023/06/10 01:41:47;;;;;;;;;;;;;;;;;;5061744;28;20373;-63
2023/06/10 01:44:12;;;;;;;;;;;;;;;;;;5067899;28;19986;-63
2023/06/10 01:46:38;;;;;;;;;;;;;;;;;;5069879;28;20289;-63
2023/06/10 01:49:04;;;;;;;;;;;;;;;;;;5059928;28;19927;-63
2023/06/10 01:51:31;;;;;;;;;;;;;;;;;;5068899;28;19928;-63
2023/06/10 01:53:57;;;;;;;;;;;;;;;;;;5065022;28;20061;-63
2023/06/10 01:56:23;;;;;;;;;;;;;;;;;;5071418;28;19974;-63
2023/06/10 01:58:49;;;;;;;;;;;;;;;;;;5060683;28;20003;-63
2023/06/10 02:01:15;;;;;;;;;;;;;;;;;;5065398;28;19951;-62
2023/06/10 02:03:41;;;;;;;;;;;;;;;;;;5070034;28;19943;-63
2023/06/10 02:06:07;;;;;;;;;;;;;;;;;;5062068;28;19947;-63
2023/06/10 02:08:33;;;;;;;;;;;;;;;;;;5060191;28;19912;-63
2023/06/10 02:10:59;;;;;;;;;;;;;;;;;;5053602;28;19948;-63
2023/06/10 02:13:24;;;;;;;;;;;;;;;;;;5060030;28;19923;-63
2023/06/10 02:15:50;;;;;;;;;;;;;;;;;;5068045;28;19920;-63
2023/06/10 02:18:20;;;;;;;;;;;;;;;;;;5067627;28;20416;-62
2023/06/10 02:20:46;;;;;;;;;;;;;;;;;;5053136;28;19913;-63
2023/06/10 02:23:12;;;;;;;;;;;;;;;;;;5052807;28;19952;-63
2023/06/10 02:25:38;;;;;;;;;;;;;;;;;;5073568;28;19915;-63
2023/06/10 02:28:03;;;;;;;;;;;;;;;;;;5070198;28;20356;-63
2023/06/10 02:30:29;;;;;;;;;;;;;;;;;;5063878;28;19921;-63
2023/06/10 02:32:56;;;;;;;;;;;;;;;;;;5064314;28;19913;-63
2023/06/10 02:35:23;;;;;;;;;;;;;;;;;;5053138;28;20435;-62
2023/06/10 02:37:50;;;;;;;;;;;;;;;;;;5060218;28;20368;-63
2023/06/10 02:40:16;;;;;;;;;;;;;;;;;;5058514;28;19912;-63
2023/06/10 02:42:42;;;;;;;;;;;;;;;;;;5064405;28;19964;-63
2023/06/10 02:45:08;;;;;;;;;;;;;;;;;;5053754;28;19938;-63
2023/06/10 02:47:34;;;;;;;;;;;;;;;;;;5054357;28;19912;-63
2023/06/10 02:50:00;;;;;;;;;;;;;;;;;;5066605;28;19921;-64
2023/06/10 02:52:25;;;;;;;;;;;;;;;;;;5055168;28;19952;-63
2023/06/10 02:54:51;;;;;;;;;;;;;;;;;;5052775;28;19971;-63
2023/06/10 02:57:17;;;;;;;;;;;;;;;;;;5052209;28;19920;-63
2023/06/10 02:59:43;;;;;;;;;;;;;;;;;;5066303;28;19932;-63
2023/06/10 03:02:09;;;;;;;;;;;;;;;;;;5067021;28;19913;-63
2023/06/10 03:04:37;;;;;;;;;;;;;;;;;;5069957;28;19916;-62
2023/06/10 03:07:03;;;;;;;;;;;;;;;;;;5062039;28;19912;-63
2023/06/10 03:09:29;;;;;;;;;;;;;;;;;;5056637;28;20285;-63
2023/06/10 03:11:55;;;;;;;;;;;;;;;;;;5048748;28;19912;-62
2023/06/10 03:14:21;;;;;;;;;;;;;;;;;;5063941;28;19919;-63
2023/06/10 03:16:47;;;;;;;;;;;;;;;;;;5068648;28;20379;-62
2023/06/10 03:19:13;;;;;;;;;;;;;;;;;;5056261;28;20443;-63
2023/06/10 03:21:41;;;;;;;;;;;;;;;;;;5058466;28;19913;-63
2023/06/10 03:24:07;;;;;;;;;;;;;;;;;;5060222;28;20292;-63
2023/06/10 03:26:33;;;;;;;;;;;;;;;;;;5071838;28;19923;-63
2023/06/10 03:28:59;;;;;;;;;;;;;;;;;;5062711;28;20007;-63
2023/06/10 03:31:25;;;;;;;;;;;;;;;;;;5061076;28;19912;-63
2023/06/10 03:33:51;;;;;;;;;;;;;;;;;;5067012;28;20360;-63
2023/06/10 03:36:16;;;;;;;;;;;;;;;;;;5051529;28;20007;-63
2023/06/10 03:38:42;;;;;;;;;;;;;;;;;;5061990;28;19916;-62
2023/06/10 03:41:08;;;;;;;;;;;;;;;;;;5059698;28;19948;-63
2023/06/10 03:43:34;;;;;;;;;;;;;;;;;;5054872;28;19919;-63
2023/06/10 03:46:00;;;;;;;;;;;;;;;;;;5071689;28;19961;-63
2023/06/10 03:48:27;;;;;;;;;;;;;;;;;;5060563;28;19952;-64
2023/06/10 03:50:53;;;;;;;;;;;;;;;;;;5069731;28;19912;-63
2023/06/10 03:53:18;;;;;;;;;;;;;;;;;;5062803;28;19923;-62
2023/06/10 03:55:45;;;;;;;;;;;;;;;;;;5055866;28;19982;-63
2023/06/10 03:58:13;;;;;;;;;;;;;;;;;;5051618;28;20513;-63
2023/06/10 04:00:41;;;;;;;;;;;;;;;;;;5050826;28;19923;-64
2023/06/10 04:03:08;;;;;;;;;;;;;;;;;;5050951;28;19913;-63
2023/06/10 04:05:34;;;;;;;;;;;;;;;;;;5066183;28;19936;-63
2023/06/10 04:08:01;;;;;;;;;;;;;;;;;;5067971;28;19995;-63
2023/06/10 04:10:27;;;;;;;;;;;;;;;;;;5065280;28;20376;-63
2023/06/10 04:12:53;;;;;;;;;;;;;;;;;;5070998;28;19967;-62
2023/06/10 04:15:19;;;;;;;;;;;;;;;;;;5065768;28;20007;-63
2023/06/10 04:17:45;;;;;;;;;;;;;;;;;;5068906;28;19963;-63
2023/06/10 04:20:11;;;;;;;;;;;;;;;;;;5056233;28;19948;-63
2023/06/10 04:22:37;;;;;;;;;;;;;;;;;;5059959;28;19955;-62
2023/06/10 04:25:03;;;;;;;;;;;;;;;;;;5063346;28;20363;-63
2023/06/10 04:27:29;;;;;;;;;;;;;;;;;;5069842;28;19912;-63
2023/06/10 04:29:55;;;;;;;;;;;;;;;;;;5059750;28;19952;-63
2023/06/10 04:32:21;;;;;;;;;;;;;;;;;;5068406;28;19919;-63
2023/06/10 04:34:47;;;;;;;;;;;;;;;;;;5061629;28;20331;-63
2023/06/10 04:37:13;;;;;;;;;;;;;;;;;;5061001;28;20000;-63
2023/06/10 04:39:39;;;;;;;;;;;;;;;;;;5056163;28;19921;-63
2023/06/10 04:42:05;;;;;;;;;;;;;;;;;;5060180;28;20357;-63
2023/06/10 04:44:31;;;;;;;;;;;;;;;;;;5050958;28;19919;-63
2023/06/10 04:46:57;;;;;;;;;;;;;;;;;;5071242;28;19908;-63
2023/06/10 04:49:23;;;;;;;;;;;;;;;;;;5068695;28;19923;-63
2023/06/10 04:51:49;;;;;;;;;;;;;;;;;;5070448;28;19944;-63
2023/06/10 04:54:15;;;;;;;;;;;;;;;;;;5066236;28;19924;-63
2023/06/10 04:56:41;;;;;;;;;;;;;;;;;;5052473;28;19969;-63
2023/06/10 04:59:07;;;;;;;;;;;;;;;;;;5070791;28;19950;-63
2023/06/10 05:01:33;;;;;;;;;;;;;;;;;;5070812;28;19912;-63
2023/06/10 05:03:59;;;;;;;;;;;;;;;;;;5072268;28;19916;-63
2023/06/10 05:06:25;;;;;;;;;;;;;;;;;;5071043;28;20003;-63
2023/06/10 05:08:51;;;;;;;;;;;;;;;;;;5069157;28;19919;-63
2023/06/10 05:11:17;;;;;;;;;;;;;;;;;;5064881;28;19924;-63
2023/06/10 05:13:44;;;;;;;;;;;;;;;;;;5054284;28;19913;-62
2023/06/10 05:16:10;;;;;;;;;;;;;;;;;;5070990;28;19943;-63
2023/06/10 05:18:35;;;;;;;;;;;;;;;;;;5074485;28;19936;-63
2023/06/10 05:21:02;;;;;;;;;;;;;;;;;;5067596;28;19913;-63
2023/06/10 05:23:28;;;;;;;;;;;;;;;;;;5054510;28;19918;-64
2023/06/10 05:25:54;;;;;;;;;;;;;;;;;;5063674;28;19921;-63
2023/06/10 05:28:20;;;;;;;;;;;;;;;;;;5053641;28;19920;-62
2023/06/10 05:30:46;;;;;;;;;;;;;;;;;;5059999;28;20325;-62
2023/06/10 05:33:12;;;;;;;;;;;;;;;;;;5063186;28;19912;-63
2023/06/10 05:35:38;;;;;;;;;;;;;;;;;;5073970;28;19995;-63
2023/06/10 05:38:04;;;;;;;;;;;;;;;;;;5073798;28;19908;-63
2023/06/10 05:40:29;;;;;;;;;;;;;;;;;;5073461;28;19916;-62
2023/06/10 05:42:55;;;;;;;;;;;;;;;;;;5067953;28;19924;-63
2023/06/10 05:45:21;;;;;;;;;;;;;;;;;;5058332;28;20004;-63
2023/06/10 05:47:47;;;;;;;;;;;;;;;;;;5060033;28;19916;-63
2023/06/10 05:50:13;;;;;;;;;;;;;;;;;;5064013;28;19912;-63
2023/06/10 05:52:42;;;;;;;;;;;;;;;;;;5041919;28;19912;-63
2023/06/10 05:55:08;;;;;;;;;;;;;;;;;;5060941;28;19973;-62
2023/06/10 05:57:34;;;;;;;;;;;;;;;;;;5071852;28;19920;-61
2023/06/10 06:00:00;;;;;;;;;;;;;;;;;;5064102;28;20306;-60
2023/06/10 06:02:26;;;;;;;;;;;;;;;;;;5063412;28;19992;-61
2023/06/10 06:04:52;;;;;;;;;;;;;;;;;;5064650;28;19962;-60
2023/06/10 06:07:20;;;;;;;;;;;;;;;;;;5061488;28;19919;-61
2023/06/10 06:09:46;;;;;;;;;;;;;;;;;;5057404;28;19912;-61
2023/06/10 06:12:12;;;;;;;;;;;;;;;;;;5051356;28;19928;-60
2023/06/10 06:14:39;;;;;;;;;;;;;;;;;;5066268;28;20035;-61
2023/06/10 06:17:05;;;;;;;;;;;;;;;;;;5063200;28;20388;-60
2023/06/10 06:19:31;;;;;;;;;;;;;;;;;;5066641;28;19913;-61
2023/06/10 06:21:57;;;;;;;;;;;;;;;;;;5068986;28;20003;-60
2023/06/10 06:24:23;;;;;;;;;;;;;;;;;;5063628;28;19959;-61
2023/06/10 06:26:48;;;;;;;;;;;;;;;;;;5065129;28;19916;-61
2023/06/10 06:29:14;;;;;;;;;;;;;;;;;;5064096;28;19951;-61
2023/06/10 06:31:40;;;;;;;;;;;;;;;;;;5060474;28;19932;-61
2023/06/10 06:34:06;;;;;;;;;;;;;;;;;;5059905;28;20084;-61
2023/06/10 06:36:32;;;;;;;;;;;;;;;;;;5056537;28;19913;-61
2023/06/10 06:38:58;;;;;;;;;;;;;;;;;;5060865;28;19912;-61
2023/06/10 06:41:25;;;;;;;;;;;;;;;;;;5071917;28;19916;-61
2023/06/10 06:43:51;;;;;;;;;;;;;;;;;;5073086;28;19939;-61
2023/06/10 06:46:17;;;;;;;;;;;;;;;;;;5066301;28;19973;-61
2023/06/10 06:48:43;;;;;;;;;;;;;;;;;;5059864;28;19948;-61
2023/06/10 06:51:09;;;;;;;;;;;;;;;;;;5070014;28;19919;-61
2023/06/10 06:53:36;;;;;;;;;;;;;;;;;;5066175;28;20186;-61
2023/06/10 06:56:02;;;;;;;;;;;;;;;;;;5069952;28;19958;-61
2023/06/10 06:58:28;;;;;;;;;;;;;;;;;;5056555;28;19921;-61
2023/06/10 07:00:54;;;;;;;;;;;;;;;;;;5065545;28;20342;-62
2023/06/10 07:03:20;;;;;;;;;;;;;;;;;;5071057;28;19926;-62
2023/06/10 07:05:47;;;;;;;;;;;;;;;;;;5060705;28;20348;-62
2023/06/10 07:08:12;;;;;;;;;;;;;;;;;;5071757;28;19908;-61
2023/06/10 07:10:38;;;;;;;;;;;;;;;;;;5060227;28;20457;-62
2023/06/10 07:13:04;;;;;;;;;;;;;;;;;;5084339;28;20257;-62
2023/06/10 07:15:30;;;;;;;;;;;;;;;;;;5092044;28;19935;-62
2023/06/10 07:17:56;;;;;;;;;;;;;;;;;;5075569;28;19999;-63
2023/06/10 07:20:22;;;;;;;;;;;;;;;;;;5062699;28;19916;-63
2023/06/10 07:22:50;;;;;;;;;;;;;;;;;;5071010;28;21538;-62
2023/06/10 07:25:16;;;;;;;;;;;;;;;;;;5063635;28;20380;-63
2023/06/10 07:27:42;;;;;;;;;;;;;;;;;;5053204;28;20360;-63
2023/06/10 07:30:08;;;;;;;;;;;;;;;;;;5071674;28;19912;-64
2023/06/10 07:32:34;;;;;;;;;;;;;;;;;;5052168;28;19913;-63
2023/06/10 07:35:00;;;;;;;;;;;;;;;;;;5051510;28;19947;-64
2023/06/10 07:37:26;;;;;;;;;;;;;;;;;;5061353;28;20003;-64
2023/06/10 07:39:52;;;;;;;;;;;;;;;;;;5059979;28;19948;-63
2023/06/10 07:42:17;;;;;;;;;;;;;;;;;;5051854;28;19909;-63
2023/06/10 07:44:43;;;;;;;;;;;;;;;;;;5051861;28;19916;-63
2023/06/10 07:47:09;;;;;;;;;;;;;;;;;;5051667;28;20345;-64
2023/06/10 07:49:35;;;;;;;;;;;;;;;;;;5063455;28;19936;-64
2023/06/10 07:52:01;;;;;;;;;;;;;;;;;;5064957;28;19916;-64
2023/06/10 07:54:27;;;;;;;;;;;;;;;;;;5062469;28;19927;-63
2023/06/10 07:56:53;;;;;;;;;;;;;;;;;;5071029;28;19908;-64
2023/06/10 07:59:19;;;;;;;;;;;;;;;;;;5070415;28;19995;-64
2023/06/10 08:01:45;;;;;;;;;;;;;;;;;;5065712;28;19924;-64
2023/06/10 08:04:11;;;;;;;;;;;;;;;;;;5070050;28;19943;-64
2023/06/10 08:06:37;;;;;;;;;;;;;;;;;;5057455;28;19982;-64
2023/06/10 08:09:03;;;;;;;;;;;;;;;;;;5053035;28;20049;-64
2023/06/10 08:11:29;;;;;;;;;;;;;;;;;;5055274;28;19920;-63
2023/06/10 08:13:55;;;;;;;;;;;;;;;;;;5051361;28;20007;-63
2023/06/10 08:16:21;;;;;;;;;;;;;;;;;;5051848;28;20094;-62
2023/06/10 08:18:47;;;;;;;;;;;;;;;;;;5051386;28;19978;-62
2023/06/10 08:21:13;;;;;;;;;;;;;;;;;;5054735;28;19913;-63
2023/06/10 08:23:39;;;;;;;;;;;;;;;;;;5063833;28;19920;-63
2023/06/10 08:26:05;;;;;;;;;;;;;;;;;;5068448;28;19916;-62
2023/06/10 08:28:30;;;;;;;;;;;;;;;;;;5053060;28;19948;-63
2023/06/10 08:30:56;;;;;;;;;;;;;;;;;;5059614;28;20399;-63
2023/06/10 08:33:22;;;;;;;;;;;;;;;;;;5053196;28;19971;-63
2023/06/10 08:35:48;;;;;;;;;;;;;;;;;;5067384;28;19960;-63
2023/06/10 08:38:16;;;;;;;;;;;;;;;;;;5056062;28;19916;-64
2023/06/10 08:40:41;;;;;;;;;;;;;;;;;;5074735;28;20317;-63
2023/06/10 08:43:07;;;;;;;;;;;;;;;;;;5064350;28;20035;-61
2023/06/10 08:45:35;;;;;;;;;;;;;;;;;;5067584;28;20013;-62
2023/06/10 08:48:01;;;;;;;;;;;;;;;;;;5074915;28;20015;-61
2023/06/10 08:50:28;;;;;;;;;;;;;;;;;;5068793;28;20345;-61
2023/06/10 08:52:54;;;;;;;;;;;;;;;;;;5061291;28;19913;-61
2023/06/10 08:55:19;;;;;;;;;;;;;;;;;;5064153;28;19977;-61
2023/06/10 08:57:47;;;;;;;;;;;;;;;;;;5066410;28;19917;-61
2023/06/10 09:00:13;;;;;;;;;;;;;;;;;;5054956;28;20383;-64
2023/06/10 09:02:39;;;;;;;;;;;;;;;;;;5071958;28;19923;-63
2023/06/10 09:05:05;;;;;;;;;;;;;;;;;;5074425;28;19974;-63
2023/06/10 09:07:31;;;;;;;;;;;;;;;;;;5074709;28;19909;-63
2023/06/10 09:09:57;;;;;;;;;;;;;;;;;;5055344;28;19955;-62
2023/06/10 09:12:23;;;;;;;;;;;;;;;;;;5054818;28;20285;-63
2023/06/10 09:14:49;;;;;;;;;;;;;;;;;;5062056;28;19967;-63
2023/06/10 09:17:15;;;;;;;;;;;;;;;;;;5068610;28;20296;-63
2023/06/10 09:19:41;;;;;;;;;;;;;;;;;;5054195;28;19913;-62
2023/06/10 09:22:07;;;;;;;;;;;;;;;;;;5060285;28;20376;-63
2023/06/10 09:24:33;;;;;;;;;;;;;;;;;;5070107;28;19939;-63
2023/06/10 09:26:59;;;;;;;;;;;;;;;;;;5066733;28;20377;-63
2023/06/10 09:29:25;;;;;;;;;;;;;;;;;;5054467;28;20007;-62
2023/06/10 09:31:51;;;;;;;;;;;;;;;;;;5053746;28;20369;-63
2023/06/10 09:34:17;;;;;;;;;;;;;;;;;;5054143;28;20086;-63
2023/06/10 09:36:43;;;;;;;;;;;;;;;;;;5068420;28;19989;-63
2023/06/10 09:39:08;;;;;;;;;;;;;;;;;;5074053;28;20405;-62
2023/06/10 09:41:37;;;;;;;;;;;;;;;;;;5072318;28;19999;-63
2023/06/10 09:44:03;;;;;;;;;;;;;;;;;;5058728;28;20280;-62
2023/06/10 09:46:29;;;;;;;;;;;;;;;;;;5073683;28;19951;-63
2023/06/10 09:48:55;;;;;;;;;;;;;;;;;;5054952;28;20383;-63
2023/06/10 09:51:22;;;;;;;;;;;;;;;;;;5068992;28;19913;-63
2023/06/10 09:53:50;;;;;;;;;;;;;;;;;;5071046;28;19924;-63
2023/06/10 09:56:16;;;;;;;;;;;;;;;;;;5060092;28;20046;-63
2023/06/10 09:58:43;;;;;;;;;;;;;;;;;;5068697;28;20002;-65
2023/06/10 10:01:09;;;;;;;;;;;;;;;;;;5043038;28;19923;-63
2023/06/10 10:03:35;;;;;;;;;;;;;;;;;;5061069;28;20000;-62
2023/06/10 10:06:01;;;;;;;;;;;;;;;;;;5064498;28;20007;-62
2023/06/10 10:08:27;;;;;;;;;;;;;;;;;;5063028;28;20304;-63
2023/06/10 10:10:52;;;;;;;;;;;;;;;;;;5072991;28;20046;-63
2023/06/10 10:13:18;;;;;;;;;;;;;;;;;;5058269;28;19974;-63
2023/06/10 10:15:44;;;;;;;;;;;;;;;;;;5072400;28;20002;-63
2023/06/10 10:18:10;;;;;;;;;;;;;;;;;;5073550;28;19915;-62
2023/06/10 10:20:36;;;;;;;;;;;;;;;;;;5058657;28;20027;-62
2023/06/10 10:23:02;;;;;;;;;;;;;;;;;;5065611;28;19955;-63
2023/06/10 10:25:28;;;;;;;;;;;;;;;;;;5070753;28;19920;-63
2023/06/10 10:27:54;;;;;;;;;;;;;;;;;;5067528;28;19938;-62
2023/06/10 10:30:20;;;;;;;;;;;;;;;;;;5052655;28;20629;-62
2023/06/10 10:32:48;;;;;;;;;;;;;;;;;;5060388;28;19966;-63
2023/06/10 10:35:14;;;;;;;;;;;;;;;;;;5052895;28;19920;-62
2023/06/10 10:37:40;;;;;;;;;;;;;;;;;;5074290;28;20299;-63
2023/06/10 10:40:06;;;;;;;;;;;;;;;;;;5064644;28;19992;-62
2023/06/10 10:42:32;;;;;;;;;;;;;;;;;;5069254;28;19920;-63
2023/06/10 10:44:58;;;;;;;;;;;;;;;;;;5053152;28;19912;-63
2023/06/10 10:47:24;;;;;;;;;;;;;;;;;;5057712;28;19946;-63
2023/06/10 10:49:50;;;;;;;;;;;;;;;;;;5060660;28;19920;-63
2023/06/10 10:52:15;;;;;;;;;;;;;;;;;;5061000;28;19951;-62
2023/06/10 10:54:41;;;;;;;;;;;;;;;;;;5070734;28;20015;-62
2023/06/10 10:57:07;;;;;;;;;;;;;;;;;;5065985;28;20299;-62
2023/06/10 10:59:33;;;;;;;;;;;;;;;;;;5081343;28;19912;-62
2023/06/10 11:01:59;;;;;;;;;;;;;;;;;;5063918;28;19920;-62
2023/06/10 11:04:25;;;;;;;;;;;;;;;;;;5056606;28;20276;-63
2023/06/10 11:06:51;;;;;;;;;;;;;;;;;;5063404;28;19954;-63
2023/06/10 11:09:17;;;;;;;;;;;;;;;;;;5061818;28;19916;-59
2023/06/10 11:11:43;;;;;;;;;;;;;;;;;;5068322;28;19938;-60
2023/06/10 11:14:09;;;;;;;;;;;;;;;;;;5055569;28;19971;-60
2023/06/10 11:16:35;;;;;;;;;;;;;;;;;;5070188;28;19925;-60
2023/06/10 11:19:01;;;;;;;;;;;;;;;;;;5055856;28;20030;-60
2023/06/10 11:21:27;;;;;;;;;;;;;;;;;;5053202;28;19913;-60
2023/06/10 11:23:53;;;;;;;;;;;;;;;;;;5063948;28;19966;-60
2023/06/10 11:26:22;;;;;;;;;;;;;;;;;;5062949;28;19951;-60
2023/06/10 11:28:48;;;;;;;;;;;;;;;;;;5071008;28;19935;-60
2023/06/10 11:31:13;;;;;;;;;;;;;;;;;;5071328;28;19916;-60
2023/06/10 11:33:39;;;;;;;;;;;;;;;;;;5071394;28;20390;-60
2023/06/10 11:36:05;;;;;;;;;;;;;;;;;;5071516;28;19965;-60
2023/06/10 11:38:31;;;;;;;;;;;;;;;;;;5066059;28;19970;-60
2023/06/10 11:40:57;;;;;;;;;;;;;;;;;;5064073;28;19913;-60
2023/06/10 11:43:23;;;;;;;;;;;;;;;;;;5070515;28;19976;-60
2023/06/10 11:45:49;;;;;;;;;;;;;;;;;;5071633;28;20303;-60
2023/06/10 11:48:15;;;;;;;;;;;;;;;;;;5071183;28;19991;-60
2023/06/10 11:50:41;;;;;;;;;;;;;;;;;;5063441;28;20008;-60
2023/06/10 11:53:07;;;;;;;;;;;;;;;;;;5062619;28;20406;-60
2023/06/10 11:55:33;;;;;;;;;;;;;;;;;;5061004;28;19912;-60
2023/06/10 11:57:59;;;;;;;;;;;;;;;;;;5057775;28;20005;-60
2023/06/10 12:00:25;;;;;;;;;;;;;;;;;;5061634;28;19912;-60
2023/06/10 12:02:50;;;;;;;;;;;;;;;;;;5057996;28;19920;-60
2023/06/10 12:05:19;;;;;;;;;;;;;;;;;;5071166;28;19919;-60
2023/06/10 12:07:45;;;;;;;;;;;;;;;;;;5068023;28;19908;-60
2023/06/10 12:10:10;;;;;;;;;;;;;;;;;;5054027;28;20030;-60
2023/06/10 12:12:36;;;;;;;;;;;;;;;;;;5065892;28;20324;-60
2023/06/10 12:15:04;;;;;;;;;;;;;;;;;;5046946;28;19971;-60
2023/06/10 12:17:31;;;;;;;;;;;;;;;;;;5061682;28;20117;-60
2023/06/10 12:19:57;;;;;;;;;;;;;;;;;;5060739;28;19955;-60
2023/06/10 12:22:24;;;;;;;;;;;;;;;;;;5051210;28;19958;-60
2023/06/10 12:24:50;;;;;;;;;;;;;;;;;;5061550;28;19916;-61
2023/06/10 12:27:16;;;;;;;;;;;;;;;;;;5070071;28;20012;-61
2023/06/10 12:29:42;;;;;;;;;;;;;;;;;;5071190;28;19908;-60
2023/06/10 12:32:08;;;;;;;;;;;;;;;;;;5070878;28;20292;-59
2023/06/10 12:34:34;;;;;;;;;;;;;;;;;;5070529;28;19916;-59
2023/06/10 12:37:00;;;;;;;;;;;;;;;;;;5070879;28;19908;-60
2023/06/10 12:39:26;;;;;;;;;;;;;;;;;;5066782;28;19992;-60
2023/06/10 12:41:52;;;;;;;;;;;;;;;;;;5061608;28;20008;-60
2023/06/10 12:44:18;;;;;;;;;;;;;;;;;;5061800;28;19916;-61
2023/06/10 12:46:44;;;;;;;;;;;;;;;;;;5071202;28;20012;-60
2023/06/10 12:49:10;;;;;;;;;;;;;;;;;;5061342;28;20367;-60
2023/06/10 12:51:36;;;;;;;;;;;;;;;;;;5069780;28;20380;-60
2023/06/10 12:54:02;;;;;;;;;;;;;;;;;;5056476;28;20348;-61
2023/06/10 12:56:28;;;;;;;;;;;;;;;;;;5051802;28;19912;-60
2023/06/10 12:58:54;;;;;;;;;;;;;;;;;;5061916;28;19957;-60
2023/06/10 13:01:21;;;;;;;;;;;;;;;;;;5070298;28;19908;-60
2023/06/10 13:03:47;;;;;;;;;;;;;;;;;;5065267;28;19919;-62
2023/06/10 13:06:13;;;;;;;;;;;;;;;;;;5061518;28;19912;-60
2023/06/10 13:08:39;;;;;;;;;;;;;;;;;;5065485;28;20033;-60
2023/06/10 13:11:05;;;;;;;;;;;;;;;;;;5067908;28;19954;-58
2023/06/10 13:13:31;;;;;;;;;;;;;;;;;;5056973;28;19958;-59
2023/06/10 13:15:57;;;;;;;;;;;;;;;;;;5059480;28;20349;-59
2023/06/10 13:18:23;;;;;;;;;;;;;;;;;;5067792;28;20034;-60
2023/06/10 13:20:49;;;;;;;;;;;;;;;;;;5068680;28;20001;-59
2023/06/10 13:23:15;;;;;;;;;;;;;;;;;;5051929;28;19971;-59
2023/06/10 13:25:44;;;;;;;;;;;;;;;;;;5069679;28;20021;-59
2023/06/10 13:28:11;;;;;;;;;;;;;;;;;;5073496;28;20396;-59
2023/06/10 13:30:37;;;;;;;;;;;;;;;;;;5070363;28;19913;-59
2023/06/10 13:33:02;;;;;;;;;;;;;;;;;;5074127;28;20347;-59
2023/06/10 13:35:28;;;;;;;;;;;;;;;;;;5057420;28;19936;-60
2023/06/10 13:37:54;;;;;;;;;;;;;;;;;;5063026;28;19919;-60
2023/06/10 13:40:21;;;;;;;;;;;;;;;;;;5053765;28;19913;-61
2023/06/10 13:42:50;;;;;;;;;;;;;;;;;;5053839;28;19952;-59
2023/06/10 13:45:16;;;;;;;;;;;;;;;;;;5053935;28;19955;-60
2023/06/10 13:47:42;;;;;;;;;;;;;;;;;;5053450;28;19921;-59
2023/06/10 13:50:08;;;;;;;;;;;;;;;;;;5073237;28;19989;-59
2023/06/10 13:52:34;;;;;;;;;;;;;;;;;;5065229;28;20407;-60
2023/06/10 13:55:00;;;;;;;;;;;;;;;;;;5065177;28;19962;-61
2023/06/10 13:57:26;;;;;;;;;;;;;;;;;;5068101;28;19917;-59
2023/06/10 13:59:52;;;;;;;;;;;;;;;;;;5053442;28;19913;-60
2023/06/10 14:02:18;;;;;;;;;;;;;;;;;;5065552;28;20413;-60
2023/06/10 14:04:44;;;;;;;;;;;;;;;;;;5054808;28;19924;-59
2023/06/10 14:07:10;;;;;;;;;;;;;;;;;;5053647;28;20018;-59
2023/06/10 14:09:36;;;;;;;;;;;;;;;;;;5053508;28;19917;-60
2023/06/10 14:12:03;;;;;;;;;;;;;;;;;;5053217;28;19909;-60
2023/06/10 14:14:30;;;;;;;;;;;;;;;;;;5053343;28;19916;-60
2023/06/10 14:16:56;;;;;;;;;;;;;;;;;;5070725;28;19921;-60
2023/06/10 14:19:22;;;;;;;;;;;;;;;;;;5067378;28;20331;-60
2023/06/10 14:21:49;;;;;;;;;;;;;;;;;;5060982;28;19955;-60
2023/06/10 14:24:15;;;;;;;;;;;;;;;;;;5057555;28;19909;-60
2023/06/10 14:26:41;;;;;;;;;;;;;;;;;;5073125;28;20527;-59
2023/06/10 14:29:08;;;;;;;;;;;;;;;;;;5072966;28;19909;-60
2023/06/10 14:31:34;;;;;;;;;;;;;;;;;;5060050;28;20319;-61
2023/06/10 14:34:00;;;;;;;;;;;;;;;;;;5071624;28;20062;-59
2023/06/10 14:36:26;;;;;;;;;;;;;;;;;;5066527;28;19912;-60
2023/06/10 14:38:52;;;;;;;;;;;;;;;;;;5071773;28;19966;-60
2023/06/10 14:41:18;;;;;;;;;;;;;;;;;;5072166;28;19916;-60
2023/06/10 14:43:44;;;;;;;;;;;;;;;;;;5072730;28;19912;-60
2023/06/10 14:46:10;;;;;;;;;;;;;;;;;;5072668;28;20364;-59
2023/06/10 14:48:36;;;;;;;;;;;;;;;;;;5069227;28;20003;-60
2023/06/10 14:51:02;;;;;;;;;;;;;;;;;;5062977;28;19916;-60
2023/06/10 14:53:28;;;;;;;;;;;;;;;;;;5055519;28;19917;-60
2023/06/10 14:55:54;;;;;;;;;;;;;;;;;;5058076;28;20006;-59
2023/06/10 14:58:19;;;;;;;;;;;;;;;;;;5072353;28;20425;-60
2023/06/10 15:00:45;;;;;;;;;;;;;;;;;;5072111;28;19916;-60
2023/06/10 15:03:11;;;;;;;;;;;;;;;;;;5070701;28;20284;-60
2023/06/10 15:05:37;;;;;;;;;;;;;;;;;;5060711;28;19940;-59
2023/06/10 15:08:03;;;;;;;;;;;;;;;;;;5072108;28;20052;-59
2023/06/10 15:10:29;;;;;;;;;;;;;;;;;;5071037;28;19965;-59
2023/06/10 15:12:55;;;;;;;;;;;;;;;;;;5064356;28;19912;-59
2023/06/10 15:15:21;;;;;;;;;;;;;;;;;;5071732;28;19950;-59
2023/06/10 15:17:47;;;;;;;;;;;;;;;;;;5072297;28;20485;-59
2023/06/10 15:20:13;;;;;;;;;;;;;;;;;;5064633;28;19996;-59
2023/06/10 15:22:39;;;;;;;;;;;;;;;;;;5068765;28;19912;-59
2023/06/10 15:25:05;;;;;;;;;;;;;;;;;;5057382;28;20362;-59
2023/06/10 15:27:30;;;;;;;;;;;;;;;;;;5066057;28;19916;-59
2023/06/10 15:29:57;;;;;;;;;;;;;;;;;;5051794;28;20265;-60
2023/06/10 15:32:23;;;;;;;;;;;;;;;;;;5055267;28;20268;-58
2023/06/10 15:34:50;;;;;;;;;;;;;;;;;;5062472;28;19947;-58
2023/06/10 15:37:16;;;;;;;;;;;;;;;;;;5055825;28;19967;-59
2023/06/10 15:39:42;;;;;;;;;;;;;;;;;;5067778;28;19916;-58
2023/06/10 15:42:08;;;;;;;;;;;;;;;;;;5060251;28;19956;-58
2023/06/10 15:44:34;;;;;;;;;;;;;;;;;;5061813;28;19959;-58
2023/06/10 15:47:00;;;;;;;;;;;;;;;;;;5071180;28;19913;-59
2023/06/10 15:49:26;;;;;;;;;;;;;;;;;;5071053;28;20015;-58
2023/06/10 15:51:52;;;;;;;;;;;;;;;;;;5063938;28;20352;-59
2023/06/10 15:54:18;;;;;;;;;;;;;;;;;;5061091;28;20027;-59
2023/06/10 15:56:44;;;;;;;;;;;;;;;;;;5071067;28;19969;-58
2023/06/10 15:59:11;;;;;;;;;;;;;;;;;;5067742;28;19944;-59
2023/06/10 16:01:37;;;;;;;;;;;;;;;;;;5061721;28;20014;-58
2023/06/10 16:04:03;;;;;;;;;;;;;;;;;;5052224;28;19956;-59
2023/06/10 16:06:29;;;;;;;;;;;;;;;;;;5067233;28;19918;-59
2023/06/10 16:08:55;;;;;;;;;;;;;;;;;;5071278;28;20376;-58
2023/06/10 16:11:22;;;;;;;;;;;;;;;;;;5070496;28;19920;-59
2023/06/10 16:13:47;;;;;;;;;;;;;;;;;;5071303;28;19917;-58
2023/06/10 16:16:13;;;;;;;;;;;;;;;;;;5071256;28;19978;-58
2023/06/10 16:18:39;;;;;;;;;;;;;;;;;;5070791;28;20004;-58
2023/06/10 16:21:05;;;;;;;;;;;;;;;;;;5051961;28;19967;-59
2023/06/10 16:23:31;;;;;;;;;;;;;;;;;;5065518;28;19924;-59
2023/06/10 16:25:57;;;;;;;;;;;;;;;;;;5065128;28;20241;-58
2023/06/10 16:28:23;;;;;;;;;;;;;;;;;;5051501;28;19955;-59
2023/06/10 16:30:49;;;;;;;;;;;;;;;;;;5051056;28;20046;-58
2023/06/10 16:33:16;;;;;;;;;;;;;;;;;;5057846;28;19912;-60
2023/06/10 16:35:42;;;;;;;;;;;;;;;;;;5069972;28;19920;-59
2023/06/10 16:38:08;;;;;;;;;;;;;;;;;;5059195;28;20287;-60